createdAt,value
2018-10-06T00:14:49.120Z,12.78
2018-10-06T00:17:17.553Z,12.74
2018-10-06T00:19:45.807Z,12.47
2018-10-06T00:22:14.262Z,12.66
2018-10-06T00:24:43.150Z,12.59
2018-10-06T00:27:11.449Z,12.64
2018-10-06T00:29:39.848Z,12.68
2018-10-06T00:32:08.136Z,12.45
2018-10-06T00:34:36.405Z,12.54
2018-10-06T00:37:04.691Z,12.50
2018-10-06T00:39:32.976Z,12.39
2018-10-06T00:42:01.257Z,12.30
2018-10-06T00:44:29.543Z,12.30
2018-10-06T00:46:58.040Z,12.46
2018-10-06T00:49:26.314Z,12.25
2018-10-06T00:51:54.588Z,12.32
2018-10-06T00:54:22.891Z,12.17
2018-10-06T00:56:51.157Z,12.21
2018-10-06T00:59:19.417Z,12.28
2018-10-06T01:01:47.728Z,12.22
2018-10-06T01:04:16.042Z,12.35
2018-10-06T01:06:44.321Z,12.24
2018-10-06T01:09:12.597Z,12.29
2018-10-06T01:11:41.278Z,12.14
2018-10-06T01:14:09.622Z,12.17
2018-10-06T01:16:37.906Z,12.36
2018-10-06T01:19:06.161Z,12.13
2018-10-06T01:21:34.457Z,12.16
2018-10-06T01:24:02.758Z,11.78
2018-10-06T02:18:13.417Z,12.07
2018-10-06T03:14:50.277Z,11.30
2018-10-06T03:17:18.580Z,11.26
2018-10-06T03:22:39.297Z,10.95
2018-10-06T03:25:13.700Z,10.84
2018-10-06T04:19:19.269Z,10.26
2018-10-06T05:13:28.705Z,9.97
2018-10-06T05:15:56.952Z,10.19
2018-10-06T05:18:25.229Z,10.19
2018-10-06T06:29:54.499Z,10.17
2018-10-06T06:32:22.821Z,10.50
2018-10-06T06:34:51.220Z,10.27
2018-10-06T06:37:19.584Z,10.38
2018-10-06T06:39:47.882Z,10.33
2018-10-06T06:42:16.117Z,10.39
2018-10-06T06:44:44.375Z,10.57
2018-10-06T06:47:12.611Z,10.77
2018-10-06T06:49:40.865Z,10.73
2018-10-06T06:52:09.145Z,10.91
2018-10-06T06:54:37.410Z,10.81
2018-10-06T06:57:06.173Z,10.83
2018-10-06T06:59:34.453Z,11.11
2018-10-06T07:02:02.735Z,11.12
2018-10-06T07:04:31.010Z,11.27
2018-10-06T07:06:59.282Z,11.19
2018-10-06T07:09:27.557Z,11.46
2018-10-06T07:11:55.822Z,11.10
2018-10-06T08:18:19.945Z,15.45
2018-10-06T08:29:45.649Z,16.77
2018-10-06T08:32:13.922Z,16.47
2018-10-06T08:34:42.184Z,16.76
2018-10-06T08:37:10.442Z,16.59
2018-10-06T08:39:38.686Z,17.23
2018-10-06T08:42:06.944Z,16.33
2018-10-06T08:44:35.216Z,15.97
2018-10-06T08:47:03.495Z,16.57
2018-10-06T08:49:31.749Z,17.57
2018-10-06T08:52:00.056Z,17.83
2018-10-06T08:54:28.328Z,17.53
2018-10-06T08:56:56.570Z,17.37
2018-10-06T08:59:24.798Z,17.67
2018-10-06T09:01:53.039Z,17.65
2018-10-06T09:04:21.392Z,17.61
2018-10-06T09:06:49.769Z,17.86
2018-10-06T09:09:18.037Z,18.77
2018-10-06T09:11:46.301Z,19.21
2018-10-06T09:23:13.594Z,20.10
2018-10-06T09:25:41.833Z,19.33
2018-10-06T09:28:22.684Z,19.97
2018-10-06T09:30:50.879Z,21.30
2018-10-06T09:33:19.164Z,19.23
2018-10-06T09:35:47.432Z,21.00
2018-10-06T09:38:22.386Z,20.55
2018-10-06T09:40:50.677Z,21.37
2018-10-06T09:43:18.953Z,21.61
2018-10-06T09:45:47.221Z,21.66
2018-10-06T09:48:15.558Z,20.46
2018-10-06T09:50:43.785Z,19.73
2018-10-06T09:53:12.042Z,20.67
2018-10-06T09:55:40.269Z,21.75
2018-10-06T09:58:08.498Z,21.26
2018-10-06T10:00:42.094Z,20.87
2018-10-06T10:03:15.749Z,20.72
2018-10-06T10:05:51.793Z,21.55
2018-10-06T10:08:19.945Z,20.95
2018-10-06T10:10:49.148Z,22.20
2018-10-06T10:22:04.639Z,20.66
2018-10-06T11:25:17.520Z,25.20
2018-10-06T12:25:16.622Z,24.50
2018-10-06T12:27:47.844Z,24.40
2018-10-06T12:30:16.109Z,24.88
2018-10-06T12:32:44.426Z,25.44
2018-10-06T12:35:12.752Z,24.68
2018-10-06T12:37:41.153Z,24.03
2018-10-06T12:40:09.521Z,25.20
2018-10-06T12:42:37.852Z,25.63
2018-10-06T12:45:06.525Z,26.05
2018-10-06T12:47:34.765Z,23.94
2018-10-06T12:50:03.036Z,22.94
2018-10-06T12:52:31.429Z,21.56
2018-10-06T12:54:59.687Z,21.97
2018-10-06T12:57:27.940Z,22.33
2018-10-06T12:59:56.215Z,22.54
2018-10-06T13:02:24.464Z,22.33
2018-10-06T13:04:52.733Z,22.12
2018-10-06T13:07:21.071Z,22.38
2018-10-06T13:09:49.346Z,21.98
2018-10-06T13:12:17.610Z,22.16
2018-10-06T13:14:47.065Z,22.82
2018-10-06T13:17:15.323Z,22.53
2018-10-06T13:22:36.081Z,21.42
2018-10-06T14:13:38.553Z,19.67
2018-10-06T14:16:06.883Z,19.33
2018-10-06T14:18:35.201Z,19.35
2018-10-06T14:21:04.439Z,19.58
2018-10-06T16:15:56.497Z,16.54
2018-10-06T16:18:25.042Z,16.39
2018-10-06T16:20:53.337Z,16.33
2018-10-06T16:23:38.217Z,16.25
2018-10-06T17:14:38.933Z,14.73
2018-10-06T17:17:07.234Z,14.55
2018-10-06T18:13:54.416Z,13.90
2018-10-06T18:16:22.693Z,13.86
2018-10-06T18:18:51.981Z,13.90
2018-10-06T18:21:20.362Z,13.83
2018-10-06T18:23:48.562Z,13.85
2018-10-06T19:17:31.436Z,13.23
2018-10-06T19:20:09.470Z,13.34
2018-10-06T19:36:30.550Z,13.22
2018-10-06T19:38:58.878Z,12.95
2018-10-06T19:41:27.120Z,12.96
2018-10-06T19:43:55.366Z,12.90
2018-10-06T19:46:23.634Z,13.24
2018-10-06T19:48:51.917Z,12.96
2018-10-06T19:51:20.152Z,12.85
2018-10-06T19:53:48.401Z,12.96
2018-10-06T19:56:16.680Z,13.23
2018-10-06T19:58:44.985Z,13.08
2018-10-06T20:01:13.222Z,12.89
2018-10-06T20:03:41.474Z,12.91
2018-10-06T20:06:09.764Z,12.92
2018-10-06T20:08:38.615Z,12.72
2018-10-06T20:11:07.837Z,12.47
2018-10-06T23:17:46.790Z,13.09
2018-10-06T23:20:15.113Z,12.96
2018-10-06T23:22:43.398Z,12.93
2018-10-06T23:25:11.671Z,12.90
2018-10-06T23:27:40.078Z,12.78
2018-10-06T23:30:08.448Z,12.76
2018-10-06T23:32:36.708Z,12.81
2018-10-06T23:35:05.031Z,12.74
2018-10-06T23:37:33.297Z,12.63
2018-10-06T23:40:01.574Z,12.63
2018-10-06T23:42:29.873Z,12.65
2018-10-06T23:44:58.128Z,12.67
2018-10-06T23:47:26.365Z,12.60
2018-10-06T23:49:54.737Z,12.60
2018-10-06T23:52:23.205Z,12.54
2018-10-06T23:54:51.494Z,12.65
2018-10-06T23:57:19.764Z,12.61
2018-10-06T23:59:48.052Z,12.50
